createdAt,value
2022-12-16T00:00:29.846Z,100897.13
2022-12-16T00:02:59.400Z,100892.50
2022-12-16T00:05:25.993Z,100885.19
2022-12-16T00:07:52.464Z,100885.88
2022-12-16T00:10:22.860Z,100887.50
2022-12-16T00:12:49.360Z,100889.06
2022-12-16T00:15:18.436Z,100888.94
2022-12-16T00:17:44.955Z,100886.06
2022-12-16T00:20:11.916Z,100882.44
2022-12-16T00:22:38.448Z,100883.19
2022-12-16T00:25:05.295Z,100884.00
2022-12-16T00:27:31.815Z,100883.13
2022-12-16T00:29:58.340Z,100883.88
2022-12-16T00:32:24.812Z,100883.78
2022-12-16T00:34:51.316Z,100883.66
2022-12-16T00:37:18.405Z,100884.41
2022-12-16T00:39:44.900Z,100880.94
2022-12-16T00:42:11.428Z,100887.19
2022-12-16T00:44:37.988Z,100885.34
2022-12-16T00:47:06.315Z,100875.53
2022-12-16T00:49:32.938Z,100883.38
2022-12-16T00:51:59.400Z,100881.47
2022-12-16T00:54:25.867Z,100876.09
2022-12-16T00:56:52.363Z,100875.88
2022-12-16T00:59:18.879Z,100884.56
2022-12-16T01:01:45.551Z,100886.19
2022-12-16T01:04:12.318Z,100884.28
2022-12-16T01:06:38.941Z,100886.81
2022-12-16T01:09:05.539Z,100885.91
2022-12-16T01:11:32.128Z,100880.53
2022-12-16T01:13:59.534Z,100890.16
2022-12-16T01:16:26.047Z,100887.38
2022-12-16T01:18:53.356Z,100891.66
2022-12-16T01:21:22.167Z,100895.09
2022-12-16T01:23:48.728Z,100902.13
2022-12-16T01:26:17.875Z,100902.13
2022-12-16T01:28:45.018Z,100909.22
2022-12-16T01:31:12.394Z,100900.31
2022-12-16T01:33:39.184Z,100909.91
2022-12-16T01:36:08.126Z,100914.22
2022-12-16T01:38:35.868Z,100922.13
2022-12-16T01:41:02.925Z,100929.16
2022-12-16T01:43:33.895Z,100932.53
2022-12-16T01:46:07.637Z,100935.16
2022-12-16T01:48:59.994Z,100935.09
2022-12-16T01:51:38.303Z,100933.16
2022-12-16T01:54:22.425Z,100935.75
2022-12-16T01:56:54.087Z,100944.53
2022-12-16T01:59:25.284Z,100942.75
2022-12-16T02:01:52.733Z,100940.09
2022-12-16T02:04:19.375Z,100941.00
2022-12-16T02:06:46.041Z,100947.31
2022-12-16T02:09:15.311Z,100951.75
2022-12-16T02:12:00.468Z,100958.84
2022-12-16T02:14:58.815Z,100949.16
2022-12-16T02:17:41.193Z,100952.91
2022-12-16T02:20:48.480Z,100961.09
2022-12-16T02:23:47.383Z,100962.84
2022-12-16T02:26:34.463Z,100964.44
2022-12-16T02:29:37.968Z,100960.81
2022-12-16T02:32:23.074Z,100963.28
2022-12-16T02:34:59.215Z,100958.78
2022-12-16T02:37:44.754Z,100958.66
2022-12-16T02:40:21.418Z,100963.91
2022-12-16T02:42:54.684Z,100960.34
2022-12-16T02:45:27.427Z,100961.13
2022-12-16T02:47:54.491Z,100961.88
2022-12-16T02:50:34.966Z,100967.13
2022-12-16T02:53:02.857Z,100968.81
2022-12-16T02:55:57.180Z,100964.28
2022-12-16T02:58:46.226Z,100974.84
2022-12-16T03:01:25.566Z,100982.69
2022-12-16T03:03:58.326Z,100984.38
2022-12-16T03:06:27.347Z,100979.84
2022-12-16T03:08:59.828Z,100971.91
2022-12-16T03:11:29.677Z,100970.03
2022-12-16T03:13:57.836Z,100969.19
2022-12-16T03:16:29.725Z,100976.28
2022-12-16T03:19:01.867Z,100968.31
2022-12-16T03:21:34.592Z,100973.63
2022-12-16T03:24:03.513Z,100969.13
2022-12-16T03:26:46.810Z,100977.09
2022-12-16T03:29:27.087Z,100982.34
2022-12-16T03:32:02.013Z,100985.84
2022-12-16T03:34:37.346Z,100981.47
2022-12-16T03:37:07.711Z,100986.91
2022-12-16T03:39:40.231Z,100986.09
2022-12-16T03:42:07.395Z,100986.16
2022-12-16T03:44:35.927Z,100993.25
2022-12-16T03:47:02.516Z,100989.69
2022-12-16T03:49:29.153Z,101001.09
2022-12-16T03:51:56.277Z,101001.09
2022-12-16T03:54:23.542Z,100998.38
2022-12-16T03:56:50.068Z,100999.19
2022-12-16T03:59:16.711Z,101000.84
2022-12-16T04:01:43.774Z,101002.59
2022-12-16T04:04:10.438Z,100999.81
2022-12-16T04:06:36.906Z,101005.06
2022-12-16T04:09:03.928Z,101005.94
2022-12-16T04:11:48.972Z,101014.69
2022-12-16T04:14:34.003Z,101013.84
2022-12-16T04:17:19.123Z,101021.72
2022-12-16T04:20:04.919Z,101024.44
2022-12-16T04:22:59.093Z,101023.66
2022-12-16T04:25:32.354Z,101035.31
2022-12-16T04:27:59.241Z,101034.63
2022-12-16T04:30:27.966Z,101040.00
2022-12-16T04:33:19.306Z,101042.72
2022-12-16T04:36:04.671Z,101042.78
2022-12-16T04:38:50.626Z,101041.03
2022-12-16T04:41:36.122Z,101049.00
2022-12-16T04:44:21.852Z,101054.31
2022-12-16T04:47:07.126Z,101053.38
2022-12-16T04:49:52.247Z,101054.25
2022-12-16T04:52:37.847Z,101059.56
2022-12-16T04:55:24.071Z,101063.09
2022-12-16T04:58:13.948Z,101061.34
2022-12-16T05:00:59.851Z,101060.44
2022-12-16T05:03:45.785Z,101065.69
2022-12-16T05:06:31.963Z,101067.34
2022-12-16T05:09:17.200Z,101066.44
2022-12-16T05:12:02.298Z,101064.66
2022-12-16T05:14:47.555Z,101069.91
2022-12-16T05:17:33.177Z,101073.41
2022-12-16T05:20:18.519Z,101071.63
2022-12-16T05:23:03.917Z,101078.72
2022-12-16T05:25:48.874Z,101078.66
2022-12-16T05:28:44.633Z,101081.38
2022-12-16T05:31:29.653Z,101088.41
2022-12-16T05:34:14.948Z,101090.22
2022-12-16T05:36:59.807Z,101097.25
2022-12-16T05:39:44.976Z,101095.47
2022-12-16T05:42:30.370Z,101103.38
2022-12-16T05:45:15.351Z,101098.00
2022-12-16T05:48:00.426Z,101105.00
2022-12-16T05:50:45.619Z,101107.59
2022-12-16T05:53:30.876Z,101115.50
2022-12-16T05:56:16.222Z,101118.16
2022-12-16T05:59:01.104Z,101118.16
2022-12-16T06:01:46.629Z,101119.88
2022-12-16T06:04:31.642Z,101123.41
2022-12-16T06:07:16.846Z,101126.00
2022-12-16T06:10:01.773Z,101132.19
2022-12-16T06:12:46.776Z,101134.84
2022-12-16T06:15:31.796Z,101138.34
2022-12-16T06:18:16.598Z,101139.16
2022-12-16T06:21:02.901Z,101137.28
2022-12-16T06:23:47.971Z,101131.84
2022-12-16T06:26:32.829Z,101137.00
2022-12-16T06:29:17.840Z,101140.50
2022-12-16T06:32:03.089Z,101135.19
2022-12-16T06:34:48.200Z,101139.66
2022-12-16T06:37:33.048Z,101139.66
2022-12-16T06:40:17.896Z,101141.31
2022-12-16T06:43:02.771Z,101150.03
2022-12-16T06:45:47.726Z,101149.13
2022-12-16T06:48:33.067Z,101160.59
2022-12-16T06:51:18.040Z,101165.97
2022-12-16T06:54:03.115Z,101159.75
2022-12-16T06:56:48.257Z,101173.03
2022-12-16T06:59:33.380Z,101174.81
2022-12-16T07:02:18.783Z,101182.78
2022-12-16T07:05:03.664Z,101184.63
2022-12-16T07:07:48.470Z,101189.09
2022-12-16T07:10:33.494Z,101190.06
2022-12-16T07:13:18.849Z,101199.78
2022-12-16T07:16:04.917Z,101201.56
2022-12-16T07:18:50.144Z,101206.94
2022-12-16T07:21:35.369Z,101221.13
2022-12-16T07:24:20.571Z,101222.88
2022-12-16T07:27:25.543Z,101224.66
2022-12-16T07:30:10.549Z,101231.72
2022-12-16T07:32:55.836Z,101233.44
2022-12-16T07:35:40.639Z,101237.81
2022-12-16T07:38:25.622Z,101244.06
2022-12-16T07:41:10.420Z,101250.41
2022-12-16T07:44:00.110Z,101251.38
2022-12-16T07:47:04.784Z,101257.63
2022-12-16T07:49:49.751Z,101253.19
2022-12-16T07:52:34.935Z,101248.72
2022-12-16T07:55:19.706Z,101253.19
2022-12-16T07:58:09.145Z,101254.91
2022-12-16T08:00:54.539Z,101259.31
2022-12-16T08:03:41.403Z,101271.59
2022-12-16T08:06:26.235Z,101273.28
2022-12-16T08:09:11.293Z,101277.69
2022-12-16T08:11:56.185Z,101288.25
2022-12-16T08:14:41.189Z,101293.50
2022-12-16T08:17:25.960Z,101283.69
2022-12-16T08:20:11.479Z,101293.41
2022-12-16T08:22:59.056Z,101289.75
2022-12-16T08:25:44.683Z,101307.50
2022-12-16T08:28:29.907Z,101314.59
2022-12-16T08:31:14.784Z,101315.47
2022-12-16T08:33:59.916Z,101314.75
2022-12-16T08:36:45.216Z,101321.91
2022-12-16T08:39:30.102Z,101321.97
2022-12-16T08:42:15.369Z,101331.72
2022-12-16T08:45:00.279Z,101330.81
2022-12-16T08:47:45.397Z,101324.56
2022-12-16T08:50:30.330Z,101326.38
2022-12-16T08:53:15.489Z,101335.31
2022-12-16T08:56:01.295Z,101338.88
2022-12-16T08:58:46.326Z,101344.25
2022-12-16T09:01:32.019Z,101346.06
2022-12-16T09:04:17.113Z,101342.63
2022-12-16T09:07:02.354Z,101351.53
2022-12-16T09:09:47.355Z,101367.59
2022-12-16T09:12:32.284Z,101362.28
2022-12-16T09:15:17.495Z,101378.22
2022-12-16T09:18:02.361Z,101376.59
2022-12-16T09:20:47.509Z,101378.56
2022-12-16T09:23:32.568Z,101382.22
2022-12-16T09:26:18.117Z,101388.34
2022-12-16T09:29:03.188Z,101388.44
2022-12-16T09:31:52.603Z,101386.69
2022-12-16T09:34:37.531Z,101398.13
2022-12-16T09:37:22.437Z,101407.06
2022-12-16T09:40:07.361Z,101402.72
2022-12-16T09:43:12.591Z,101417.69
2022-12-16T09:46:29.927Z,101430.00
2022-12-16T09:49:18.057Z,101423.78
2022-12-16T09:52:06.003Z,101425.47
2022-12-16T09:54:55.424Z,101433.28
2022-12-16T09:57:42.483Z,101441.13
2022-12-16T10:00:42.028Z,101434.00
2022-12-16T10:03:51.132Z,101441.84
2022-12-16T10:06:55.836Z,101436.47
2022-12-16T10:09:47.994Z,101453.34
2022-12-16T10:12:40.888Z,101447.16
2022-12-16T10:15:51.568Z,101457.72
2022-12-16T10:18:48.335Z,101454.09
2022-12-16T10:21:40.512Z,101457.63
2022-12-16T10:24:37.912Z,101454.88
2022-12-16T10:27:31.904Z,101452.09
2022-12-16T10:30:17.367Z,101460.84
2022-12-16T10:33:06.439Z,101458.13
2022-12-16T10:36:00.440Z,101453.69
2022-12-16T10:39:03.004Z,101460.69
2022-12-16T10:41:52.669Z,101458.03
2022-12-16T10:45:07.615Z,101460.75
2022-12-16T10:47:52.521Z,101467.84
2022-12-16T10:50:38.795Z,101453.63
2022-12-16T10:53:32.952Z,101462.09
2022-12-16T10:56:37.228Z,101469.88
2022-12-16T10:59:24.645Z,101462.72
2022-12-16T11:02:24.414Z,101463.44
2022-12-16T11:05:09.631Z,101460.44
2022-12-16T11:08:10.955Z,101465.53
2022-12-16T11:10:59.165Z,101460.81
2022-12-16T11:13:49.819Z,101462.63
2022-12-16T11:16:47.369Z,101465.22
2022-12-16T11:19:42.006Z,101458.00
2022-12-16T11:22:57.542Z,101469.44
2022-12-16T11:25:42.363Z,101463.88
2022-12-16T11:28:33.133Z,101468.34
2022-12-16T11:31:23.497Z,101476.19
2022-12-16T11:34:10.747Z,101482.41
2022-12-16T11:36:57.658Z,101483.22
2022-12-16T11:39:45.429Z,101478.66
2022-12-16T11:42:42.453Z,101478.47
2022-12-16T11:46:03.354Z,101478.25
2022-12-16T11:48:59.205Z,101469.22
2022-12-16T11:51:47.873Z,101469.22
2022-12-16T11:54:46.301Z,101467.56
2022-12-16T11:58:01.900Z,101463.03
2022-12-16T12:00:48.107Z,101460.16
2022-12-16T12:03:42.632Z,101466.16
2022-12-16T12:06:49.647Z,101457.03
2022-12-16T12:09:40.213Z,101453.19
2022-12-16T12:12:47.339Z,101466.16
2022-12-16T12:15:58.866Z,101466.63
2022-12-16T12:19:04.876Z,101464.47
2022-12-16T12:22:15.060Z,101474.78
2022-12-16T12:25:21.009Z,101471.13
2022-12-16T12:28:22.952Z,101479.84
2022-12-16T12:31:24.731Z,101490.44
2022-12-16T12:34:26.659Z,101483.13
2022-12-16T12:37:42.972Z,101477.69
2022-12-16T12:40:43.324Z,101486.38
2022-12-16T12:43:43.654Z,101486.25
2022-12-16T12:46:45.092Z,101494.97
2022-12-16T12:49:41.444Z,101496.66
2022-12-16T12:52:29.387Z,101496.59
2022-12-16T12:55:19.916Z,101499.00
2022-12-16T12:58:08.520Z,101503.41
2022-12-16T13:01:01.554Z,101505.19
2022-12-16T13:04:27.158Z,101502.72
2022-12-16T13:07:12.749Z,101510.72
2022-12-16T13:09:58.294Z,101515.19
2022-12-16T13:12:48.474Z,101511.59
2022-12-16T13:15:56.558Z,101523.13
2022-12-16T13:18:49.312Z,101515.91
2022-12-16T13:22:04.388Z,101512.38
2022-12-16T13:24:58.469Z,101506.94
2022-12-16T13:27:46.427Z,101508.72
2022-12-16T13:30:31.406Z,101512.31
2022-12-16T13:33:22.828Z,101517.66
2022-12-16T13:36:16.603Z,101522.06
2022-12-16T13:39:43.904Z,101519.53
2022-12-16T13:42:59.722Z,101527.50
2022-12-16T13:45:56.251Z,101530.31
2022-12-16T13:48:52.107Z,101529.50
2022-12-16T13:51:55.195Z,101530.50
2022-12-16T13:55:04.983Z,101526.91
2022-12-16T13:57:56.009Z,101532.16
2022-12-16T14:00:43.833Z,101536.63
2022-12-16T14:03:37.085Z,101544.75
2022-12-16T14:06:28.023Z,101541.38
2022-12-16T14:09:13.123Z,101542.38
2022-12-16T14:12:19.925Z,101546.72
2022-12-16T14:15:10.044Z,101555.53
2022-12-16T14:18:13.392Z,101563.34
2022-12-16T14:21:07.645Z,101565.06
2022-12-16T14:24:10.118Z,101569.47
2022-12-16T14:26:56.789Z,101573.00
2022-12-16T14:29:45.592Z,101571.25
2022-12-16T14:32:45.311Z,101572.25
2022-12-16T14:35:33.111Z,101574.19
2022-12-16T14:38:33.617Z,101577.75
2022-12-16T14:41:18.548Z,101577.81
2022-12-16T14:44:03.502Z,101584.16
2022-12-16T14:46:50.109Z,101593.00
2022-12-16T14:49:44.031Z,101596.34
2022-12-16T14:52:39.627Z,101608.53
2022-12-16T14:55:47.393Z,101607.34
2022-12-16T14:58:41.031Z,101622.16
2022-12-16T15:01:37.379Z,101621.09
2022-12-16T15:04:29.077Z,101627.97
2022-12-16T15:07:14.852Z,101625.16
2022-12-16T15:10:05.052Z,101633.22
2022-12-16T15:12:56.025Z,101634.03
2022-12-16T15:15:53.322Z,101637.44
2022-12-16T15:18:47.087Z,101639.13
2022-12-16T15:21:31.920Z,101638.06
2022-12-16T15:24:16.708Z,101643.28
2022-12-16T15:27:01.737Z,101644.97
2022-12-16T15:29:58.961Z,101651.97
2022-12-16T15:32:44.007Z,101655.69
2022-12-16T15:35:29.731Z,101654.94
2022-12-16T15:38:14.540Z,101664.69
2022-12-16T15:40:59.799Z,101670.06
2022-12-16T15:43:53.670Z,101666.59
2022-12-16T15:46:43.962Z,101680.88
2022-12-16T15:49:48.292Z,101676.81
2022-12-16T15:52:48.752Z,101688.66
2022-12-16T15:55:49.173Z,101698.47
2022-12-16T15:58:47.473Z,101691.28
2022-12-16T16:01:35.416Z,101696.63
2022-12-16T16:04:21.121Z,101704.56
2022-12-16T16:07:08.888Z,101705.47
2022-12-16T16:09:56.293Z,101716.19
2022-12-16T16:12:42.493Z,101719.84
2022-12-16T16:15:30.381Z,101715.41
2022-12-16T16:18:22.551Z,101721.59
2022-12-16T16:21:08.745Z,101726.00
2022-12-16T16:23:54.103Z,101725.13
2022-12-16T16:26:41.715Z,101732.28
2022-12-16T16:29:29.535Z,101741.25
2022-12-16T16:32:14.680Z,101744.03
2022-12-16T16:34:59.756Z,101741.50
2022-12-16T16:37:44.716Z,101742.47
2022-12-16T16:40:51.797Z,101743.34
2022-12-16T16:43:37.563Z,101749.59
2022-12-16T16:46:33.426Z,101756.03
2022-12-16T16:49:18.688Z,101772.25
2022-12-16T16:52:03.607Z,101768.22
2022-12-16T16:54:49.259Z,101773.75
2022-12-16T16:57:34.445Z,101784.53
2022-12-16T17:00:19.613Z,101780.13
2022-12-16T17:03:04.964Z,101782.84
2022-12-16T17:05:50.008Z,101786.53
2022-12-16T17:08:36.043Z,101784.84
2022-12-16T17:11:20.944Z,101790.16
2022-12-16T17:14:06.115Z,101794.78
2022-12-16T17:16:51.054Z,101790.44
2022-12-16T17:19:36.218Z,101787.78
2022-12-16T17:22:21.076Z,101793.09
2022-12-16T17:25:06.245Z,101790.44
2022-12-16T17:27:50.987Z,101787.72
2022-12-16T17:30:43.495Z,101797.50
2022-12-16T17:33:33.278Z,101796.69
2022-12-16T17:36:18.865Z,101793.97
2022-12-16T17:39:04.492Z,101803.59
2022-12-16T17:41:55.652Z,101807.84
2022-12-16T17:44:40.508Z,101808.56
2022-12-16T17:47:25.283Z,101813.84
2022-12-16T17:50:10.131Z,101813.00
2022-12-16T17:52:54.893Z,101815.72
2022-12-16T17:55:39.831Z,101812.34
2022-12-16T17:58:24.639Z,101816.16
2022-12-16T18:01:09.563Z,101821.69
2022-12-16T18:03:54.604Z,101825.34
2022-12-16T18:06:39.736Z,101825.44
2022-12-16T18:09:24.816Z,101833.41
2022-12-16T18:12:09.556Z,101843.16
2022-12-16T18:14:54.820Z,101838.66
2022-12-16T18:17:39.856Z,101845.72
2022-12-16T18:20:25.118Z,101850.06
2022-12-16T18:23:12.965Z,101851.78
2022-12-16T18:25:58.146Z,101849.13
2022-12-16T18:28:43.314Z,101849.22
2022-12-16T18:31:28.637Z,101853.72
2022-12-16T18:34:13.766Z,101856.41
2022-12-16T18:36:59.219Z,101845.72
2022-12-16T18:39:44.373Z,101867.78
2022-12-16T18:42:29.413Z,101864.13
2022-12-16T18:45:14.290Z,101866.75
2022-12-16T18:47:59.496Z,101867.56
2022-12-16T18:50:44.683Z,101870.13
2022-12-16T18:53:30.019Z,101878.03
2022-12-16T18:56:26.069Z,101879.75
2022-12-16T18:59:11.479Z,101881.59
2022-12-16T19:01:57.118Z,101888.94
2022-12-16T19:04:42.733Z,101890.81
2022-12-16T19:07:30.701Z,101890.06
2022-12-16T19:10:17.955Z,101895.44
2022-12-16T19:13:02.813Z,101901.63
2022-12-16T19:15:47.839Z,101898.03
2022-12-16T19:18:33.139Z,101892.72
2022-12-16T19:21:18.359Z,101898.00
2022-12-16T19:24:03.343Z,101904.31
2022-12-16T19:26:48.531Z,101899.91
2022-12-16T19:29:33.678Z,101906.25
2022-12-16T19:32:18.727Z,101909.88
2022-12-16T19:35:03.978Z,101909.03
2022-12-16T19:37:49.033Z,101907.25
2022-12-16T19:40:33.941Z,101906.38
2022-12-16T19:43:18.794Z,101917.00
2022-12-16T19:46:10.955Z,101925.69
2022-12-16T19:48:56.235Z,101931.78
2022-12-16T19:51:41.007Z,101934.34
2022-12-16T19:54:25.880Z,101929.91
2022-12-16T19:57:10.968Z,101926.38
2022-12-16T19:59:55.687Z,101930.72
2022-12-16T20:02:41.785Z,101927.13
2022-12-16T20:05:26.784Z,101942.25
2022-12-16T20:08:11.663Z,101942.97
2022-12-16T20:10:56.534Z,101951.00
2022-12-16T20:13:41.928Z,101948.28
2022-12-16T20:16:29.117Z,101951.00
2022-12-16T20:19:14.951Z,101951.09
2022-12-16T20:22:06.797Z,101962.78
2022-12-16T20:24:53.578Z,101959.16
2022-12-16T20:27:41.931Z,101962.72
2022-12-16T20:30:27.713Z,101965.41
2022-12-16T20:33:12.926Z,101970.66
2022-12-16T20:35:57.912Z,101964.47
2022-12-16T20:38:43.061Z,101967.09
2022-12-16T20:41:28.267Z,101971.53
2022-12-16T20:44:13.436Z,101978.72
2022-12-16T20:46:58.809Z,101979.63
2022-12-16T20:49:43.848Z,101987.72
2022-12-16T20:52:29.063Z,101983.13
2022-12-16T20:55:14.220Z,101990.81
2022-12-16T20:57:59.365Z,101997.59
2022-12-16T21:00:44.586Z,102001.75
2022-12-16T21:03:29.709Z,102000.75
2022-12-16T21:06:14.789Z,102005.00
2022-12-16T21:08:59.910Z,102009.31
2022-12-16T21:11:44.809Z,102014.50
2022-12-16T21:14:29.880Z,102010.81
2022-12-16T21:17:14.808Z,102018.59
2022-12-16T21:20:00.122Z,102014.06
2022-12-16T21:22:45.166Z,102024.75
2022-12-16T21:25:30.114Z,102028.41
2022-12-16T21:28:16.333Z,102023.88
2022-12-16T21:31:01.718Z,102032.72
2022-12-16T21:33:47.140Z,102028.19
2022-12-16T21:36:32.638Z,102031.72
2022-12-16T21:39:17.583Z,102038.69
2022-12-16T21:42:02.409Z,102049.34
2022-12-16T21:44:47.626Z,102050.28
2022-12-16T21:47:32.729Z,102055.00
2022-12-16T21:50:17.607Z,102053.50
2022-12-16T21:53:05.680Z,102051.03
2022-12-16T21:55:51.085Z,102054.63
2022-12-16T21:58:37.103Z,102062.63
2022-12-16T22:01:22.098Z,102059.84
2022-12-16T22:04:07.127Z,102056.31
2022-12-16T22:07:03.267Z,102059.09
2022-12-16T22:09:48.113Z,102058.41
2022-12-16T22:12:32.818Z,102053.41
2022-12-16T22:15:17.932Z,102065.22
2022-12-16T22:18:03.212Z,102075.19
2022-12-16T22:20:48.112Z,102079.69
2022-12-16T22:23:34.058Z,102078.78
2022-12-16T22:26:19.396Z,102075.25
2022-12-16T22:29:05.331Z,102077.81
2022-12-16T22:31:50.221Z,102077.91
2022-12-16T22:34:35.449Z,102089.44
2022-12-16T22:37:20.440Z,102095.81
2022-12-16T22:40:05.463Z,102093.28
2022-12-16T22:42:50.279Z,102090.72
2022-12-16T22:45:35.210Z,102097.88
2022-12-16T22:48:20.474Z,102095.34
2022-12-16T22:51:05.604Z,102091.94
2022-12-16T22:53:50.699Z,102099.16
2022-12-16T22:56:37.018Z,102103.63
2022-12-16T22:59:22.099Z,102102.81
2022-12-16T23:02:07.420Z,102109.91
2022-12-16T23:04:52.270Z,102107.34
2022-12-16T23:07:37.504Z,102113.53
2022-12-16T23:10:23.880Z,102110.00
2022-12-16T23:13:09.027Z,102109.13
2022-12-16T23:15:56.533Z,102115.47
2022-12-16T23:18:59.608Z,102110.22
2022-12-16T23:21:44.932Z,102105.81
2022-12-16T23:24:30.177Z,102105.75
2022-12-16T23:27:16.099Z,102116.41
2022-12-16T23:30:01.019Z,102117.28
2022-12-16T23:32:46.276Z,102114.50
2022-12-16T23:35:31.072Z,102114.66
2022-12-16T23:38:20.651Z,102110.47
2022-12-16T23:41:05.778Z,102112.38
2022-12-16T23:43:51.224Z,102116.94
2022-12-16T23:46:37.017Z,102120.69
2022-12-16T23:49:22.282Z,102135.84
2022-12-16T23:52:07.197Z,102127.88
2022-12-16T23:54:52.188Z,102127.91
2022-12-16T23:57:37.276Z,102132.41
